Time;durP1;ratioP1;P1;durP2;ratioP2;P2;SDS_P1;SDS_P2;PMS_P1;PMS_P2;Temp;Humidity;BMP_temperature;BMP_pressure;BME280_temperature;BME280_humidity;BME280_pressure;Samples;Min_cycle;Max_cycle;Signal;HPM_P1;HPM_P2
2021/10/23 00:00:22;;;;;;;21.23;8.47;;;;;;;5.45;100.00;102276.03;2106956;28;20055;-64
2021/10/23 00:01:22;;;;;;;16.80;9.27;;;;;;;5.50;100.00;102276.91;2107033;28;20034;-64
2021/10/23 00:02:22;;;;;;;17.80;9.37;;;;;;;5.51;100.00;102278.66;2106929;28;20033;-66
2021/10/23 00:03:23;;;;;;;21.07;10.30;;;;;;;5.54;100.00;102281.22;2106796;28;20059;-65
2021/10/23 00:04:23;;;;;;;16.17;9.97;;;;;;;5.56;100.00;102278.66;2106959;28;20028;-66
2021/10/23 00:05:23;;;;;;;25.50;10.40;;;;;;;5.59;100.00;102284.72;2106155;28;20032;-65
2021/10/23 00:06:24;;;;;;;15.90;9.33;;;;;;;5.61;100.00;102284.72;2106292;28;20024;-64
2021/10/23 00:07:24;;;;;;;12.40;8.40;;;;;;;5.62;100.00;102278.66;2106326;28;20092;-65
2021/10/23 00:08:24;;;;;;;16.67;9.47;;;;;;;5.62;100.00;102282.13;2106293;28;20050;-65
2021/10/23 00:09:24;;;;;;;20.03;10.37;;;;;;;5.62;100.00;102284.72;2106943;28;20500;-64
2021/10/23 00:10:25;;;;;;;16.63;9.73;;;;;;;5.65;100.00;102283.88;2106791;28;20097;-64
2021/10/23 00:11:25;;;;;;;13.93;9.13;;;;;;;5.70;100.00;102281.25;2106995;28;20063;-64
2021/10/23 00:12:26;;;;;;;17.80;9.63;;;;;;;5.71;100.00;102278.66;2106279;28;20056;-64
2021/10/23 00:13:26;;;;;;;17.93;9.60;;;;;;;5.75;100.00;102282.16;2106269;28;20510;-64
2021/10/23 00:14:27;;;;;;;18.97;9.10;;;;;;;5.78;100.00;102284.72;2106902;28;20057;-65
2021/10/23 00:15:27;;;;;;;22.23;10.25;;;;;;;5.80;100.00;102283.88;2107002;28;20024;-65
2021/10/23 00:16:27;;;;;;;17.07;10.83;;;;;;;5.80;100.00;102288.19;2106176;28;20032;-66
2021/10/23 00:17:27;;;;;;;21.80;10.77;;;;;;;5.83;100.00;102285.59;2106244;28;20032;-65
2021/10/23 00:18:28;;;;;;;22.20;10.20;;;;;;;5.83;100.00;102287.31;2097457;28;20092;-65
2021/10/23 00:19:28;;;;;;;14.73;9.83;;;;;;;5.84;100.00;102289.91;2097727;28;20116;-65
2021/10/23 00:20:28;;;;;;;19.47;10.13;;;;;;;5.86;100.00;102295.09;2097733;28;20524;-65
2021/10/23 00:21:29;;;;;;;25.97;10.90;;;;;;;5.86;100.00;102292.50;2106250;28;20515;-64
2021/10/23 00:22:30;;;;;;;21.30;10.90;;;;;;;5.86;100.00;102295.97;2106169;28;20019;-66
2021/10/23 00:23:30;;;;;;;19.77;9.80;;;;;;;5.88;100.00;102295.94;2106296;28;20024;-65
2021/10/23 00:24:31;;;;;;;17.27;10.63;;;;;;;5.92;100.00;102301.16;2106823;28;20481;-65
2021/10/23 00:25:31;;;;;;;17.57;11.17;;;;;;;5.95;100.00;102302.88;2106883;28;20313;-65
2021/10/23 00:26:31;;;;;;;14.50;8.93;;;;;;;5.98;100.00;102300.28;2106834;28;20073;-66
2021/10/23 00:27:32;;;;;;;22.13;10.87;;;;;;;6.00;100.00;102300.28;2106854;28;20020;-65
2021/10/23 00:28:32;;;;;;;19.38;10.15;;;;;;;6.02;100.00;102299.44;2106885;28;20077;-66
2021/10/23 00:29:33;;;;;;;17.57;10.93;;;;;;;6.04;100.00;102299.47;2106219;28;20043;-65
2021/10/23 00:30:33;;;;;;;23.17;11.17;;;;;;;6.06;100.00;102297.75;2106185;28;20382;-66
2021/10/23 00:31:33;;;;;;;21.83;11.23;;;;;;;6.10;100.00;102301.19;2106772;28;20027;-65
2021/10/23 00:32:34;;;;;;;22.73;12.57;;;;;;;6.11;100.00;102296.00;2106885;28;20028;-65
2021/10/23 00:33:34;;;;;;;17.70;10.23;;;;;;;6.14;100.00;102306.38;2106808;28;20453;-64
2021/10/23 00:34:34;;;;;;;19.97;10.97;;;;;;;6.16;100.00;102307.22;2106703;28;20472;-65
2021/10/23 00:35:34;;;;;;;25.43;12.73;;;;;;;6.16;100.00;102309.81;2106634;28;20027;-64
2021/10/23 00:36:35;;;;;;;20.00;11.43;;;;;;;6.17;100.00;102310.69;2106636;28;20030;-65
2021/10/23 00:37:35;;;;;;;16.87;10.33;;;;;;;6.18;100.00;102308.09;2106733;28;20361;-64
2021/10/23 00:38:35;;;;;;;22.07;10.50;;;;;;;6.20;100.00;102302.94;2106714;28;20020;-65
2021/10/23 00:39:35;;;;;;;20.23;10.77;;;;;;;6.24;100.00;102303.78;2106155;28;20117;-65
2021/10/23 00:40:36;;;;;;;20.37;11.17;;;;;;;6.24;100.00;102303.78;2097851;28;20615;-65
2021/10/23 00:41:36;;;;;;;19.83;12.07;;;;;;;6.25;100.00;102310.69;2106173;28;20115;-64
2021/10/23 00:42:37;;;;;;;25.03;12.40;;;;;;;6.26;100.00;102302.91;2106798;28;20527;-65
2021/10/23 00:43:38;;;;;;;22.47;12.97;;;;;;;6.27;100.00;102303.78;2106086;28;20405;-65
2021/10/23 00:44:42;;;;;;;21.48;12.73;;;;;;;6.30;100.00;102314.16;2106163;28;20039;-64
2021/10/23 00:45:42;;;;;;;22.38;12.50;;;;;;;6.32;100.00;102302.03;2106802;28;20035;-64
2021/10/23 00:46:43;;;;;;;21.57;12.13;;;;;;;6.30;100.00;102304.63;2106771;28;20011;-65
2021/10/23 00:47:43;;;;;;;21.77;11.53;;;;;;;6.31;100.00;102305.50;2106096;28;20016;-65
2021/10/23 00:48:43;;;;;;;32.80;13.90;;;;;;;6.33;100.00;102308.94;2106103;28;20485;-65
2021/10/23 00:49:45;;;;;;;20.98;12.35;;;;;;;6.34;100.00;102305.50;2106651;28;20377;-64
2021/10/23 00:50:47;;;;;;;19.67;12.48;;;;;;;6.35;100.00;102307.22;2106759;28;20020;-65
2021/10/23 00:51:47;;;;;;;23.85;13.13;;;;;;;6.35;100.00;102307.22;2106670;28;20058;-65
2021/10/23 00:52:49;;;;;;;20.60;12.57;;;;;;;6.34;100.00;102313.28;2106731;28;20167;-64
2021/10/23 00:53:49;;;;;;;21.77;11.82;;;;;;;6.33;100.00;102311.53;2105879;28;20020;-65
2021/10/23 00:54:50;;;;;;;21.13;11.47;;;;;;;6.32;100.00;102309.81;2106110;28;20515;-65
2021/10/23 00:55:51;;;;;;;22.77;12.55;;;;;;;6.30;100.00;102311.56;2106737;28;20028;-65
2021/10/23 00:56:51;;;;;;;25.63;13.20;;;;;;;6.29;100.00;102309.81;2106580;28;20458;-65
2021/10/23 00:57:51;;;;;;;21.60;12.03;;;;;;;6.28;100.00;102318.47;2106631;28;20030;-65
2021/10/23 00:58:51;;;;;;;23.47;12.77;;;;;;;6.27;100.00;102316.75;2106619;28;20077;-65
2021/10/23 00:59:52;;;;;;;20.87;10.83;;;;;;;6.27;100.00;102314.16;2106666;28;20028;-64
2021/10/23 01:00:53;;;;;;;19.47;11.33;;;;;;;6.28;100.00;102323.66;2106577;28;20028;-66
2021/10/23 01:01:53;;;;;;;21.30;12.65;;;;;;;6.25;100.00;102319.34;2106591;28;20051;-64
2021/10/23 01:02:54;;;;;;;21.10;11.35;;;;;;;6.25;100.00;102318.47;2105798;28;20043;-66
2021/10/23 01:03:54;;;;;;;24.17;11.60;;;;;;;6.25;100.00;102318.47;2106105;28;20031;-65
2021/10/23 01:04:55;;;;;;;23.57;13.20;;;;;;;6.23;100.00;102318.47;2106535;28;20035;-65
2021/10/23 01:05:56;;;;;;;23.92;12.85;;;;;;;6.22;100.00;102314.13;2106524;28;20034;-65
2021/10/23 01:06:56;;;;;;;27.70;13.90;;;;;;;6.22;100.00;102318.47;2106671;28;20032;-64
2021/10/23 01:07:58;;;;;;;21.10;12.57;;;;;;;6.21;100.00;102316.72;2105940;28;20461;-65
2021/10/23 01:08:58;;;;;;;22.35;12.85;;;;;;;6.18;100.00;102315.00;2106029;28;20078;-65
2021/10/23 01:10:00;;;;;;;22.73;12.43;;;;;;;6.15;100.00;102315.00;2105876;28;20070;-65
2021/10/23 01:11:00;;;;;;;21.83;12.27;;;;;;;6.12;100.00;102309.84;2106042;28;20546;-65
2021/10/23 01:12:04;;;;;;;24.77;12.98;;;;;;;6.12;100.00;102317.63;2106634;28;20028;-64
2021/10/23 01:13:05;;;;;;;25.38;13.57;;;;;;;6.10;100.00;102317.63;2106637;28;20542;-65
2021/10/23 01:14:13;;;;;;;22.88;12.73;;;;;;;6.12;100.00;102315.03;2106021;28;20016;-65
2021/10/23 01:15:29;;;;;;;26.42;14.63;;;;;;;6.12;100.00;102312.44;2106159;28;20039;-65
2021/10/23 01:16:29;;;;;;;26.45;13.05;;;;;;;6.12;100.00;102305.50;2106550;28;20103;-65
2021/10/23 01:17:30;;;;;;;19.17;12.17;;;;;;;6.13;100.00;102307.22;2106631;28;20031;-65
2021/10/23 01:18:30;;;;;;;24.27;13.53;;;;;;;6.14;100.00;102308.97;2106618;28;20285;-65
2021/10/23 01:19:30;;;;;;;26.87;13.93;;;;;;;6.15;100.00;102304.63;2106679;28;20366;-64
2021/10/23 01:20:33;;;;;;;27.40;13.60;;;;;;;6.16;100.00;102302.03;2105701;28;20020;-65
2021/10/23 01:21:33;;;;;;;26.40;13.68;;;;;;;6.17;100.00;102301.16;2106024;28;20066;-65
2021/10/23 01:22:33;;;;;;;21.13;13.43;;;;;;;6.18;100.00;102310.69;2106557;28;20032;-65
2021/10/23 01:23:34;;;;;;;25.27;13.83;;;;;;;6.20;100.00;102313.28;2106479;28;20058;-65
2021/10/23 01:24:34;;;;;;;25.30;13.27;;;;;;;6.23;100.00;102309.84;2106601;28;20024;-64
2021/10/23 01:25:35;;;;;;;24.47;14.10;;;;;;;6.24;100.00;102308.97;2106655;28;20024;-65
2021/10/23 01:26:36;;;;;;;23.88;14.75;;;;;;;6.25;100.00;102315.88;2106636;28;20469;-65
2021/10/23 01:27:38;;;;;;;22.08;13.85;;;;;;;6.24;100.00;102324.50;2106734;28;20158;-65
2021/10/23 01:28:39;;;;;;;26.35;14.73;;;;;;;6.23;100.00;102315.88;2106531;28;20024;-65
2021/10/23 01:29:39;;;;;;;25.88;13.68;;;;;;;6.24;100.00;102314.16;2106587;28;20035;-65
2021/10/23 01:30:39;;;;;;;23.77;13.10;;;;;;;6.24;100.00;102307.25;2106781;28;20027;-65
2021/10/23 01:31:41;;;;;;;25.53;13.40;;;;;;;6.26;100.00;102313.28;2108162;28;20065;-64
2021/10/23 01:32:42;;;;;;;23.55;14.20;;;;;;;6.25;100.00;102310.69;2108125;28;20031;-65
2021/10/23 01:33:42;;;;;;;23.63;14.30;;;;;;;6.23;100.00;102318.47;2108142;28;20063;-65
2021/10/23 01:34:42;;;;;;;21.73;13.43;;;;;;;6.21;100.00;102307.25;2108103;28;20103;-65
2021/10/23 01:35:43;;;;;;;22.63;13.07;;;;;;;6.22;100.00;102310.72;2107889;28;20020;-65
2021/10/23 01:36:46;;;;;;;26.02;14.70;;;;;;;6.23;100.00;102315.03;2108068;28;20016;-65
2021/10/23 01:37:47;;;;;;;27.13;14.82;;;;;;;6.23;100.00;102315.03;2107358;28;20019;-65
2021/10/23 01:38:48;;;;;;;;;;;;;;;6.23;100.00;102312.44;2108025;28;20016;-65
2021/10/23 01:39:48;;;;;;;27.80;14.30;;;;;;;6.23;100.00;102312.44;2108090;28;20338;-65
2021/10/23 01:40:48;;;;;;;28.70;13.73;;;;;;;6.23;100.00;102317.63;2107393;28;20024;-65
2021/10/23 01:41:49;;;;;;;26.67;12.53;;;;;;;6.19;100.00;102308.94;2107502;28;20103;-65
2021/10/23 01:42:49;;;;;;;21.33;13.03;;;;;;;6.20;100.00;102317.59;2107981;28;20077;-65
2021/10/23 01:43:49;;;;;;;23.77;14.37;;;;;;;6.18;100.00;102312.41;2108113;28;20481;-65
2021/10/23 01:44:50;;;;;;;25.60;14.67;;;;;;;6.15;100.00;102310.69;2108002;28;20342;-65
2021/10/23 01:45:50;;;;;;;28.90;14.27;;;;;;;6.13;100.00;102321.94;2107413;28;20028;-64
2021/10/23 01:46:50;;;;;;;28.77;14.60;;;;;;;6.13;100.00;102316.75;2107409;28;20083;-65
2021/10/23 01:47:50;;;;;;;24.57;14.23;;;;;;;6.13;100.00;102309.81;2107763;28;20039;-66
2021/10/23 01:48:51;;;;;;;23.80;13.47;;;;;;;6.10;100.00;102312.44;2108090;28;20036;-65
2021/10/23 01:49:51;;;;;;;24.77;15.03;;;;;;;6.11;100.00;102311.56;2107950;28;20427;-65
2021/10/23 01:50:52;;;;;;;31.73;15.73;;;;;;;6.08;100.00;102324.50;2107970;28;20496;-65
2021/10/23 01:51:52;;;;;;;22.73;14.73;;;;;;;6.05;100.00;102308.97;2108041;28;20024;-65
2021/10/23 01:52:54;;;;;;;22.73;14.23;;;;;;;6.08;100.00;102308.97;2107240;28;20024;-64
2021/10/23 01:53:54;;;;;;;23.73;13.60;;;;;;;6.02;100.00;102308.94;2107432;28;20036;-64
2021/10/23 01:54:55;;;;;;;22.83;13.65;;;;;;;5.97;100.00;102306.34;2108020;28;20028;-65
2021/10/23 01:55:55;;;;;;;26.90;15.60;;;;;;;5.95;100.00;102308.06;2107965;28;20024;-65
2021/10/23 01:56:55;;;;;;;21.57;13.30;;;;;;;5.96;100.00;102314.13;2107332;28;20039;-64
2021/10/23 01:57:57;;;;;;;25.40;15.70;;;;;;;5.96;100.00;102303.75;2107369;28;20024;-65
2021/10/23 01:58:57;;;;;;;27.08;15.15;;;;;;;5.95;100.00;102307.22;2107940;28;20122;-65
2021/10/23 01:59:58;;;;;;;21.63;14.95;;;;;;;5.90;100.00;102310.66;2107912;28;20032;-65
2021/10/23 02:00:58;;;;;;;28.50;15.03;;;;;;;5.85;100.00;102312.38;2107998;28;20023;-65
2021/10/23 02:02:00;;;;;;;25.87;15.07;;;;;;;5.81;100.00;102310.63;2107940;28;20027;-65
2021/10/23 02:03:01;;;;;;;23.67;14.32;;;;;;;5.78;100.00;102301.13;2107998;28;20089;-65
2021/10/23 02:04:02;;;;;;;25.57;14.83;;;;;;;5.78;100.00;102300.25;2107973;28;20078;-65
2021/10/23 02:05:03;;;;;;;28.00;16.48;;;;;;;5.77;100.00;102299.41;2107942;28;20047;-64
2021/10/23 02:06:09;;;;;;;29.80;15.70;;;;;;;5.76;100.00;102302.00;2107899;28;20027;-65
2021/10/23 02:07:09;;;;;;;33.85;16.88;;;;;;;5.74;100.00;102303.72;2107828;28;20024;-65
2021/10/23 02:08:09;;;;;;;29.98;16.15;;;;;;;5.75;100.00;102311.50;2107195;28;20451;-64
2021/10/23 02:09:10;;;;;;;25.77;16.70;;;;;;;5.75;100.00;102305.47;2107328;28;20035;-65
2021/10/23 02:10:10;;;;;;;25.47;16.17;;;;;;;5.69;100.00;102300.25;2107025;28;20123;-65
2021/10/23 02:11:11;;;;;;;29.60;16.63;;;;;;;5.63;100.00;102307.16;2107279;28;20024;-65
2021/10/23 02:12:11;;;;;;;28.35;16.40;;;;;;;5.62;100.00;102301.97;2107689;28;20111;-65
2021/10/23 02:13:11;;;;;;;28.70;16.10;;;;;;;5.59;100.00;102300.25;2107145;28;20040;-65
2021/10/23 02:14:12;;;;;;;24.50;16.37;;;;;;;5.58;100.00;102293.31;2107248;28;20032;-65
2021/10/23 02:15:12;;;;;;;33.33;16.40;;;;;;;5.58;100.00;102293.31;2107093;28;20032;-66
2021/10/23 02:16:12;;;;;;;32.87;17.67;;;;;;;5.58;100.00;102290.72;2107241;28;20278;-65
2021/10/23 02:17:13;;;;;;;37.43;17.10;;;;;;;5.55;100.00;102293.34;2107828;28;20066;-64
2021/10/23 02:18:13;;;;;;;36.17;18.53;;;;;;;5.58;100.00;102290.72;2107796;28;20462;-64
2021/10/23 02:19:14;;;;;;;34.33;17.60;;;;;;;5.58;100.00;102288.16;2107752;28;20035;-65
2021/10/23 02:20:14;;;;;;;28.33;15.32;;;;;;;5.58;100.00;102295.91;2107730;28;20068;-66
2021/10/23 02:21:15;;;;;;;31.07;16.03;;;;;;;5.58;100.00;102293.31;2107845;28;20026;-65
2021/10/23 02:22:15;;;;;;;32.08;16.23;;;;;;;5.57;100.00;102301.13;2107762;28;20030;-65
2021/10/23 02:23:15;;;;;;;33.83;16.83;;;;;;;5.53;100.00;102292.47;2107710;28;20024;-65
2021/10/23 02:24:16;;;;;;;32.23;15.90;;;;;;;5.51;100.00;102289.03;2107022;28;20020;-65
2021/10/23 02:25:16;;;;;;;23.83;14.40;;;;;;;5.50;100.00;102289.84;2107184;28;20459;-65
2021/10/23 02:26:16;;;;;;;27.67;14.83;;;;;;;5.52;100.00;102294.22;2107767;28;20085;-64
2021/10/23 02:27:16;;;;;;;28.53;14.63;;;;;;;5.52;100.00;102298.50;2107779;28;20458;-64
2021/10/23 02:28:17;;;;;;;29.93;14.87;;;;;;;5.49;100.00;102294.19;2107817;28;20086;-64
2021/10/23 02:29:18;;;;;;;29.08;15.52;;;;;;;5.50;100.00;102295.03;2107747;28;20350;-64
2021/10/23 02:30:18;;;;;;;25.90;14.63;;;;;;;5.48;100.00;102299.38;2107717;28;20127;-65
2021/10/23 02:31:18;;;;;;;22.93;14.73;;;;;;;5.46;100.00;102290.72;2107737;28;20313;-64
2021/10/23 02:32:19;;;;;;;24.67;13.90;;;;;;;5.45;100.00;102301.94;2107728;28;20035;-65
2021/10/23 02:33:19;;;;;;;21.10;13.27;;;;;;;5.44;100.00;102300.22;2107728;28;20453;-65
2021/10/23 02:34:19;;;;;;;24.63;14.47;;;;;;;5.47;100.00;102301.09;2107739;28;20024;-65
2021/10/23 02:35:20;;;;;;;25.03;15.33;;;;;;;5.48;100.00;102296.78;2107656;28;20422;-64
2021/10/23 02:36:20;;;;;;;27.77;13.57;;;;;;;5.45;100.00;102291.59;2107454;28;20060;-65
2021/10/23 02:37:20;;;;;;;26.23;15.00;;;;;;;5.44;100.00;102297.63;2107708;28;20095;-64
2021/10/23 02:38:20;;;;;;;28.50;15.10;;;;;;;5.43;100.00;102294.16;2107686;28;20568;-65
2021/10/23 02:39:21;;;;;;;31.13;15.90;;;;;;;5.40;100.00;102288.97;2106974;28;20024;-65
2021/10/23 02:40:21;;;;;;;26.43;14.07;;;;;;;5.37;100.00;102296.75;2107054;28;20072;-64
2021/10/23 02:41:25;;;;;;;22.63;14.23;;;;;;;5.36;100.00;102298.47;2107441;28;20035;-65
2021/10/23 02:42:25;;;;;;;25.25;15.05;;;;;;;5.29;100.00;102301.91;2107506;28;20023;-65
2021/10/23 02:43:26;;;;;;;26.17;15.83;;;;;;;5.32;100.00;102301.03;2107644;28;20111;-65
2021/10/23 02:44:26;;;;;;;25.83;14.95;;;;;;;5.31;100.00;102295.00;2107589;28;20024;-65
2021/10/23 02:45:26;;;;;;;27.23;13.97;;;;;;;5.33;100.00;102293.28;2107622;28;20537;-65
2021/10/23 02:46:27;;;;;;;28.80;14.80;;;;;;;5.32;100.00;102296.72;2107589;28;20013;-65
2021/10/23 02:47:27;;;;;;;26.63;15.63;;;;;;;5.35;100.00;102293.28;2107580;28;20035;-65
2021/10/23 02:48:27;;;;;;;28.57;16.00;;;;;;;5.32;100.00;102296.72;2107495;28;20099;-64
2021/10/23 02:49:28;;;;;;;27.53;15.53;;;;;;;5.30;100.00;102298.44;2107614;28;20421;-65
2021/10/23 02:50:28;;;;;;;24.33;13.47;;;;;;;5.29;100.00;102296.72;2107585;28;20043;-65
2021/10/23 02:51:28;;;;;;;28.10;14.30;;;;;;;5.29;100.00;102288.94;2107562;28;20026;-65
2021/10/23 02:52:29;;;;;;;26.87;15.70;;;;;;;5.27;100.00;102291.53;2106953;28;20741;-65
2021/10/23 02:53:29;;;;;;;25.40;14.82;;;;;;;5.27;100.00;102291.53;2106910;28;20094;-66
2021/10/23 02:54:30;;;;;;;29.07;15.90;;;;;;;5.33;100.00;102295.03;2106849;28;20028;-65
2021/10/23 02:55:30;;;;;;;29.83;15.10;;;;;;;5.32;100.00;102295.84;2106982;28;20028;-64
2021/10/23 02:56:30;;;;;;;28.43;15.03;;;;;;;5.29;100.00;102301.91;2107574;28;20468;-65
2021/10/23 02:57:30;;;;;;;24.07;15.13;;;;;;;5.28;100.00;102301.03;2107599;28;20117;-65
2021/10/23 02:58:31;;;;;;;27.50;15.23;;;;;;;5.31;100.00;102302.78;2108915;28;20075;-66
2021/10/23 02:59:31;;;;;;;29.10;15.23;;;;;;;5.31;100.00;102299.31;2109242;28;20486;-64
2021/10/23 03:00:31;;;;;;;24.67;14.80;;;;;;;5.31;100.00;102307.97;2110010;28;20073;-64
2021/10/23 03:01:32;;;;;;;28.60;15.53;;;;;;;5.33;100.00;102308.81;2109424;28;20083;-65
2021/10/23 03:02:33;;;;;;;28.83;15.02;;;;;;;5.32;100.00;102307.09;2109307;28;20559;-65
2021/10/23 03:03:33;;;;;;;25.67;15.07;;;;;;;5.35;100.00;102312.28;2109693;28;20108;-65
2021/10/23 03:04:33;;;;;;;30.03;14.63;;;;;;;5.43;100.00;102316.63;2110329;28;20282;-65
2021/10/23 03:05:34;;;;;;;29.40;16.10;;;;;;;5.45;100.00;102320.06;2109154;28;20178;-65
2021/10/23 03:06:35;;;;;;;26.08;14.80;;;;;;;5.49;100.00;102319.22;2107439;28;20505;-65
2021/10/23 03:07:35;;;;;;;27.03;14.90;;;;;;;5.52;100.00;102322.69;2108110;28;20044;-66
2021/10/23 03:08:37;;;;;;;26.70;14.10;;;;;;;5.54;100.00;102322.66;2107711;28;20477;-64
2021/10/23 03:09:37;;;;;;;27.27;14.90;;;;;;;5.59;100.00;102315.81;2106736;28;20020;-64
2021/10/23 03:10:37;;;;;;;34.83;15.70;;;;;;;5.61;100.00;102308.88;2106727;28;20027;-65
2021/10/23 03:11:38;;;;;;;31.73;17.33;;;;;;;5.61;100.00;102310.63;2107450;28;20519;-65
2021/10/23 03:12:38;;;;;;;26.03;14.90;;;;;;;5.60;100.00;102312.34;2107346;28;20055;-64
2021/10/23 03:13:38;;;;;;;27.40;15.73;;;;;;;5.58;100.00;102311.47;2107470;28;20532;-64
2021/10/23 03:14:38;;;;;;;28.23;14.73;;;;;;;5.57;100.00;102317.50;2107412;28;20020;-65
2021/10/23 03:15:39;;;;;;;23.80;14.37;;;;;;;5.56;100.00;102320.97;2107452;28;20467;-64
2021/10/23 03:16:39;;;;;;;27.53;16.53;;;;;;;5.56;100.00;102326.16;2107394;28;20016;-65
2021/10/23 03:17:39;;;;;;;28.87;16.00;;;;;;;5.54;100.00;102323.53;2106758;28;20536;-64
2021/10/23 03:18:40;;;;;;;25.67;14.53;;;;;;;5.51;100.00;102323.53;2106618;28;20472;-64
2021/10/23 03:19:40;;;;;;;32.47;14.83;;;;;;;5.50;100.00;102314.03;2106756;28;20063;-67
2021/10/23 03:20:41;;;;;;;23.80;14.50;;;;;;;5.48;100.00;102312.31;2106969;28;20011;-64
2021/10/23 03:21:41;;;;;;;24.03;14.60;;;;;;;5.46;100.00;102320.06;2107268;28;20485;-65
2021/10/23 03:22:41;;;;;;;26.13;15.13;;;;;;;5.41;100.00;102321.78;2107310;28;20389;-64
2021/10/23 03:23:41;;;;;;;30.63;16.57;;;;;;;5.36;100.00;102315.72;2107312;28;20130;-65
2021/10/23 03:24:42;;;;;;;25.43;14.07;;;;;;;5.35;100.00;102322.63;2107241;28;20521;-65
2021/10/23 03:25:43;;;;;;;27.70;15.17;;;;;;;5.33;100.00;102324.34;2107299;28;20095;-65
2021/10/23 03:26:43;;;;;;;;;;;;;;;5.31;100.00;102323.50;2107781;28;20043;-65
2021/10/23 03:27:44;;;;;;;30.02;13.65;;;;;;;5.28;100.00;102323.47;2107212;28;19962;-65
2021/10/23 03:28:44;;;;;;;26.20;15.00;;;;;;;5.28;100.00;102321.72;2107294;28;20028;-65
2021/10/23 03:29:46;;;;;;;26.17;13.60;;;;;;;5.28;100.00;102326.91;2107263;28;20054;-65
2021/10/23 03:30:46;;;;;;;22.85;12.98;;;;;;;5.26;100.00;102328.63;2107135;28;20055;-65
2021/10/23 03:31:47;;;;;;;26.65;13.60;;;;;;;5.26;100.00;102332.94;2107200;28;20028;-65
2021/10/23 03:32:47;;;;;;;25.67;14.27;;;;;;;5.25;100.00;102333.81;2107246;28;20019;-65
2021/10/23 03:33:47;;;;;;;26.53;14.87;;;;;;;5.21;100.00;102332.06;2107286;28;20516;-65
2021/10/23 03:34:48;;;;;;;24.00;13.60;;;;;;;5.20;100.00;102327.75;2106643;28;20020;-65
2021/10/23 03:35:48;;;;;;;26.20;14.25;;;;;;;5.18;100.00;102332.06;2106494;28;20069;-65
2021/10/23 03:36:48;;;;;;;26.13;14.77;;;;;;;5.17;100.00;102332.91;2107162;28;20024;-64
2021/10/23 03:37:49;;;;;;;27.53;15.47;;;;;;;5.19;100.00;102334.66;2107307;28;20497;-64
2021/10/23 03:38:49;;;;;;;27.87;13.47;;;;;;;5.22;100.00;102331.19;2107200;28;20048;-65
2021/10/23 03:39:49;;;;;;;25.67;14.77;;;;;;;5.22;100.00;102336.38;2107154;28;20077;-65
2021/10/23 03:40:50;;;;;;;28.03;15.87;;;;;;;5.21;100.00;102334.66;2107163;28;20016;-64
2021/10/23 03:41:50;;;;;;;27.23;14.27;;;;;;;5.19;100.00;102336.34;2107181;28;20040;-65
2021/10/23 03:42:50;;;;;;;29.80;14.60;;;;;;;5.20;100.00;102338.13;2107149;28;20054;-65
2021/10/23 03:43:51;;;;;;;24.67;13.10;;;;;;;5.25;100.00;102341.56;2107211;28;20023;-65
2021/10/23 03:44:52;;;;;;;27.73;14.73;;;;;;;5.29;100.00;102345.91;2107065;28;20595;-66
2021/10/23 03:45:52;;;;;;;24.90;13.93;;;;;;;5.31;100.00;102341.63;2107135;28;20538;-65
2021/10/23 03:46:52;;;;;;;28.50;14.83;;;;;;;5.33;100.00;102339.88;2107131;28;20081;-65
2021/10/23 03:47:52;;;;;;;24.67;13.37;;;;;;;5.35;100.00;102340.75;2107083;28;20412;-64
2021/10/23 03:48:53;;;;;;;31.97;14.80;;;;;;;5.36;100.00;102345.06;2107023;28;20027;-65
2021/10/23 03:49:53;;;;;;;29.77;14.70;;;;;;;5.36;100.00;102347.66;2106987;28;20024;-65
2021/10/23 03:50:53;;;;;;;26.47;15.23;;;;;;;5.34;100.00;102344.19;2107133;28;20016;-65
2021/10/23 03:51:54;;;;;;;28.13;14.40;;;;;;;5.34;100.00;102346.78;2107065;28;20032;-65
2021/10/23 03:52:55;;;;;;;29.73;16.27;;;;;;;5.35;100.00;102342.47;2106923;28;20027;-64
2021/10/23 03:53:55;;;;;;;24.75;15.05;;;;;;;5.38;100.00;102345.94;2106391;28;20274;-65
2021/10/23 03:54:55;;;;;;;27.23;15.17;;;;;;;5.43;100.00;102350.28;2106944;28;20465;-65
2021/10/23 03:55:55;;;;;;;27.53;14.67;;;;;;;5.44;100.00;102352.00;2106963;28;20233;-64
2021/10/23 03:56:56;;;;;;;25.13;13.70;;;;;;;5.46;100.00;102355.44;2106927;28;20032;-65
2021/10/23 03:57:56;;;;;;;30.33;16.07;;;;;;;5.47;100.00;102354.63;2106984;28;20039;-65
2021/10/23 03:58:56;;;;;;;26.20;14.27;;;;;;;5.45;100.00;102354.59;2107036;28;20085;-65
2021/10/23 03:59:57;;;;;;;23.67;13.27;;;;;;;5.47;100.00;102354.63;2106992;28;20089;-65
2021/10/23 04:00:57;;;;;;;24.98;13.95;;;;;;;5.49;100.00;102356.34;2106942;28;20524;-65
2021/10/23 04:01:58;;;;;;;26.50;14.10;;;;;;;5.51;100.00;102353.75;2107018;28;20077;-65
2021/10/23 04:02:58;;;;;;;28.20;13.07;;;;;;;5.52;100.00;102355.47;2106932;28;20392;-65
2021/10/23 04:03:59;;;;;;;25.47;13.37;;;;;;;5.55;100.00;102355.50;2107112;28;20020;-65
2021/10/23 04:04:59;;;;;;;26.13;14.47;;;;;;;5.57;100.00;102366.72;2106955;28;20036;-65
2021/10/23 04:05:59;;;;;;;22.90;13.57;;;;;;;5.59;100.00;102365.00;2107035;28;20028;-65
2021/10/23 04:06:59;;;;;;;27.00;14.23;;;;;;;5.63;100.00;102361.56;2106954;28;20077;-64
2021/10/23 04:08:01;;;;;;;25.00;14.23;;;;;;;5.66;100.00;102364.16;2106985;28;20054;-65
2021/10/23 04:09:01;;;;;;;28.10;15.43;;;;;;;5.68;100.00;102361.56;2106953;28;20046;-65
2021/10/23 04:10:03;;;;;;;28.25;15.48;;;;;;;5.66;100.00;102364.16;2106874;28;20574;-65
2021/10/23 04:11:03;;;;;;;25.88;14.63;;;;;;;5.66;100.00;102368.47;2106872;28;20027;-65
2021/10/23 04:12:04;;;;;;;30.67;14.90;;;;;;;5.68;100.00;102361.56;2106911;28;20060;-65
2021/10/23 04:13:04;;;;;;;29.97;15.97;;;;;;;5.71;100.00;102365.91;2106207;28;20527;-65
2021/10/23 04:14:05;;;;;;;29.17;15.97;;;;;;;5.74;100.00;102363.28;2106355;28;20030;-65
2021/10/23 04:15:05;;;;;;;29.45;16.08;;;;;;;5.78;100.00;102367.63;2106938;28;20074;-66
2021/10/23 04:16:05;;;;;;;31.90;15.50;;;;;;;5.82;100.00;102365.91;2106967;28;20023;-65
2021/10/23 04:17:06;;;;;;;29.40;16.67;;;;;;;5.83;100.00;102360.75;2106987;28;20385;-65
2021/10/23 04:18:06;;;;;;;29.43;14.60;;;;;;;5.83;100.00;102360.75;2106969;28;20028;-65
2021/10/23 04:19:06;;;;;;;33.90;15.93;;;;;;;5.85;100.00;102359.00;2106869;28;20560;-65
2021/10/23 04:20:07;;;;;;;30.30;15.70;;;;;;;5.88;100.00;102360.72;2106892;28;20059;-65
2021/10/23 04:21:07;;;;;;;30.05;15.18;;;;;;;5.87;100.00;102354.72;2106892;28;20058;-65
2021/10/23 04:22:09;;;;;;;28.87;14.77;;;;;;;5.89;100.00;102355.56;2106949;28;20373;-65
2021/10/23 04:23:10;;;;;;;32.42;15.85;;;;;;;5.90;100.00;102357.31;2106858;28;20036;-64
2021/10/23 04:24:10;;;;;;;31.07;15.63;;;;;;;5.92;100.00;102358.16;2106862;28;20121;-65
2021/10/23 04:25:10;;;;;;;30.33;14.80;;;;;;;5.96;100.00;102358.16;2106909;28;20032;-65
2021/10/23 04:26:11;;;;;;;32.57;16.47;;;;;;;5.98;100.00;102356.44;2106794;28;20062;-64
2021/10/23 04:27:11;;;;;;;36.07;15.50;;;;;;;6.00;100.00;102358.19;2106895;28;20106;-65
2021/10/23 04:28:11;;;;;;;29.30;15.90;;;;;;;6.02;100.00;102359.03;2106803;28;20121;-66
2021/10/23 04:29:11;;;;;;;29.73;15.43;;;;;;;6.05;100.00;102358.19;2106913;28;20028;-65
2021/10/23 04:30:12;;;;;;;23.77;14.30;;;;;;;6.06;100.00;102365.13;2106822;28;20028;-65
2021/10/23 04:31:12;;;;;;;32.30;16.53;;;;;;;6.06;100.00;102362.53;2106873;28;20024;-65
2021/10/23 04:32:13;;;;;;;33.47;15.93;;;;;;;6.07;100.00;102363.38;2106840;28;20468;-65
2021/10/23 04:33:13;;;;;;;30.77;15.20;;;;;;;6.08;100.00;102366.00;2106838;28;20036;-65
2021/10/23 04:34:14;;;;;;;39.63;17.07;;;;;;;6.10;100.00;102364.28;2106842;28;20397;-65
2021/10/23 04:35:15;;;;;;;35.60;17.25;;;;;;;6.11;100.00;102360.81;2106785;28;20378;-65